sensor_id;sensor_type;location;lat;lon;timestamp;P1;durP1;ratioP1;P2;durP2;ratioP2
48853;SDS011;34673;52.808;17.856;2023-04-09T00:00:16;40.45;;;26.33;;
48853;SDS011;34673;52.808;17.856;2023-04-09T00:02:43;42.70;;;26.13;;
48853;SDS011;34673;52.808;17.856;2023-04-09T00:05:10;41.38;;;25.23;;
48853;SDS011;34673;52.808;17.856;2023-04-09T00:07:37;43.42;;;26.65;;
48853;SDS011;34673;52.808;17.856;2023-04-09T00:10:05;42.80;;;26.35;;
48853;SDS011;34673;52.808;17.856;2023-04-09T00:12:32;45.35;;;27.02;;
48853;SDS011;34673;52.808;17.856;2023-04-09T00:14:59;42.00;;;26.50;;
48853;SDS011;34673;52.808;17.856;2023-04-09T00:17:26;44.78;;;26.92;;
48853;SDS011;34673;52.808;17.856;2023-04-09T00:19:53;43.42;;;26.85;;
48853;SDS011;34673;52.808;17.856;2023-04-09T00:22:20;44.55;;;27.13;;
48853;SDS011;34673;52.808;17.856;2023-04-09T00:24:47;42.75;;;26.65;;
48853;SDS011;34673;52.808;17.856;2023-04-09T00:27:14;42.03;;;26.45;;
48853;SDS011;34673;52.808;17.856;2023-04-09T00:29:41;46.65;;;27.38;;
48853;SDS011;34673;52.808;17.856;2023-04-09T00:32:08;42.85;;;27.08;;
48853;SDS011;34673;52.808;17.856;2023-04-09T00:34:35;43.33;;;26.98;;
48853;SDS011;34673;52.808;17.856;2023-04-09T00:37:04;43.92;;;27.08;;
48853;SDS011;34673;52.808;17.856;2023-04-09T00:39:31;43.47;;;27.23;;
48853;SDS011;34673;52.808;17.856;2023-04-09T00:41:58;42.17;;;27.15;;
48853;SDS011;34673;52.808;17.856;2023-04-09T00:44:28;44.90;;;27.15;;
48853;SDS011;34673;52.808;17.856;2023-04-09T00:46:55;44.53;;;26.73;;
48853;SDS011;34673;52.808;17.856;2023-04-09T00:49:26;44.13;;;27.23;;
48853;SDS011;34673;52.808;17.856;2023-04-09T00:51:53;42.80;;;26.90;;
48853;SDS011;34673;52.808;17.856;2023-04-09T00:54:20;43.70;;;26.58;;
48853;SDS011;34673;52.808;17.856;2023-04-09T00:56:47;44.42;;;28.05;;
48853;SDS011;34673;52.808;17.856;2023-04-09T00:59:15;48.47;;;27.88;;
48853;SDS011;34673;52.808;17.856;2023-04-09T01:01:42;41.40;;;26.33;;
48853;SDS011;34673;52.808;17.856;2023-04-09T01:04:09;47.80;;;27.27;;
48853;SDS011;34673;52.808;17.856;2023-04-09T01:06:53;44.80;;;26.67;;
48853;SDS011;34673;52.808;17.856;2023-04-09T01:09:34;41.53;;;26.30;;
48853;SDS011;34673;52.808;17.856;2023-04-09T01:12:09;43.97;;;27.33;;
48853;SDS011;34673;52.808;17.856;2023-04-09T01:20:47;45.75;;;26.67;;
48853;SDS011;34673;52.808;17.856;2023-04-09T01:28:58;42.40;;;26.17;;
48853;SDS011;34673;52.808;17.856;2023-04-09T01:31:31;43.92;;;25.77;;
48853;SDS011;34673;52.808;17.856;2023-04-09T01:34:01;42.50;;;27.02;;
48853;SDS011;34673;52.808;17.856;2023-04-09T01:36:30;45.72;;;27.70;;
48853;SDS011;34673;52.808;17.856;2023-04-09T01:38:59;41.47;;;26.25;;
48853;SDS011;34673;52.808;17.856;2023-04-09T01:41:27;43.25;;;26.65;;
48853;SDS011;34673;52.808;17.856;2023-04-09T01:43:58;45.70;;;26.83;;
48853;SDS011;34673;52.808;17.856;2023-04-09T01:46:27;45.57;;;27.03;;
48853;SDS011;34673;52.808;17.856;2023-04-09T01:48:55;43.17;;;26.50;;
48853;SDS011;34673;52.808;17.856;2023-04-09T01:51:23;42.60;;;26.27;;
48853;SDS011;34673;52.808;17.856;2023-04-09T01:53:50;45.17;;;27.80;;
48853;SDS011;34673;52.808;17.856;2023-04-09T01:56:17;45.00;;;26.52;;
48853;SDS011;34673;52.808;17.856;2023-04-09T01:58:44;42.20;;;26.10;;
48853;SDS011;34673;52.808;17.856;2023-04-09T02:01:12;42.90;;;25.52;;
48853;SDS011;34673;52.808;17.856;2023-04-09T02:03:51;44.90;;;26.30;;
48853;SDS011;34673;52.808;17.856;2023-04-09T02:09:14;45.80;;;26.80;;
48853;SDS011;34673;52.808;17.856;2023-04-09T02:11:45;43.40;;;25.60;;
48853;SDS011;34673;52.808;17.856;2023-04-09T02:14:14;46.38;;;26.77;;
48853;SDS011;34673;52.808;17.856;2023-04-09T02:16:42;46.92;;;26.88;;
48853;SDS011;34673;52.808;17.856;2023-04-09T02:19:09;42.03;;;26.23;;
48853;SDS011;34673;52.808;17.856;2023-04-09T02:21:36;41.30;;;25.77;;
48853;SDS011;34673;52.808;17.856;2023-04-09T02:24:03;44.20;;;26.17;;
48853;SDS011;34673;52.808;17.856;2023-04-09T02:26:31;44.95;;;25.00;;
48853;SDS011;34673;52.808;17.856;2023-04-09T02:28:58;44.20;;;26.40;;
48853;SDS011;34673;52.808;17.856;2023-04-09T02:31:25;44.40;;;25.63;;
48853;SDS011;34673;52.808;17.856;2023-04-09T02:33:53;44.33;;;26.58;;
48853;SDS011;34673;52.808;17.856;2023-04-09T02:36:20;45.35;;;26.15;;
48853;SDS011;34673;52.808;17.856;2023-04-09T02:38:47;44.20;;;26.20;;
48853;SDS011;34673;52.808;17.856;2023-04-09T02:41:14;42.78;;;26.58;;
48853;SDS011;34673;52.808;17.856;2023-04-09T02:43:41;47.85;;;27.25;;
48853;SDS011;34673;52.808;17.856;2023-04-09T02:46:08;45.97;;;26.92;;
48853;SDS011;34673;52.808;17.856;2023-04-09T02:48:35;46.80;;;26.15;;
48853;SDS011;34673;52.808;17.856;2023-04-09T02:51:05;45.53;;;26.83;;
48853;SDS011;34673;52.808;17.856;2023-04-09T02:56:00;45.85;;;26.75;;
48853;SDS011;34673;52.808;17.856;2023-04-09T02:58:27;42.88;;;26.48;;
48853;SDS011;34673;52.808;17.856;2023-04-09T03:00:54;46.40;;;27.08;;
48853;SDS011;34673;52.808;17.856;2023-04-09T03:03:21;45.38;;;28.40;;
48853;SDS011;34673;52.808;17.856;2023-04-09T03:05:48;45.45;;;28.33;;
48853;SDS011;34673;52.808;17.856;2023-04-09T03:08:15;46.13;;;27.60;;
48853;SDS011;34673;52.808;17.856;2023-04-09T03:10:42;50.78;;;29.23;;
48853;SDS011;34673;52.808;17.856;2023-04-09T03:13:10;49.90;;;27.88;;
48853;SDS011;34673;52.808;17.856;2023-04-09T03:15:37;45.33;;;27.52;;
48853;SDS011;34673;52.808;17.856;2023-04-09T03:18:05;49.25;;;28.40;;
48853;SDS011;34673;52.808;17.856;2023-04-09T03:20:32;50.15;;;27.90;;
48853;SDS011;34673;52.808;17.856;2023-04-09T03:22:59;49.95;;;28.63;;
48853;SDS011;34673;52.808;17.856;2023-04-09T03:25:34;48.53;;;28.33;;
48853;SDS011;34673;52.808;17.856;2023-04-09T03:28:09;45.88;;;27.38;;
48853;SDS011;34673;52.808;17.856;2023-04-09T03:30:43;47.95;;;27.92;;
48853;SDS011;34673;52.808;17.856;2023-04-09T03:33:11;42.42;;;26.42;;
48853;SDS011;34673;52.808;17.856;2023-04-09T03:35:51;53.70;;;28.92;;
48853;SDS011;34673;52.808;17.856;2023-04-09T03:38:28;47.47;;;27.98;;
48853;SDS011;34673;52.808;17.856;2023-04-09T03:40:57;50.88;;;28.10;;
48853;SDS011;34673;52.808;17.856;2023-04-09T03:43:24;47.72;;;28.42;;
48853;SDS011;34673;52.808;17.856;2023-04-09T03:45:52;49.78;;;27.70;;
48853;SDS011;34673;52.808;17.856;2023-04-09T03:48:24;46.33;;;26.63;;
48853;SDS011;34673;52.808;17.856;2023-04-09T03:50:52;43.15;;;25.98;;
48853;SDS011;34673;52.808;17.856;2023-04-09T03:53:28;45.22;;;27.00;;
48853;SDS011;34673;52.808;17.856;2023-04-09T03:56:00;46.08;;;28.23;;
48853;SDS011;34673;52.808;17.856;2023-04-09T03:58:29;46.75;;;27.20;;
48853;SDS011;34673;52.808;17.856;2023-04-09T04:00:57;52.42;;;28.85;;
48853;SDS011;34673;52.808;17.856;2023-04-09T04:03:34;46.92;;;27.50;;
48853;SDS011;34673;52.808;17.856;2023-04-09T04:06:20;46.75;;;27.63;;
48853;SDS011;34673;52.808;17.856;2023-04-09T04:09:05;48.63;;;27.30;;
48853;SDS011;34673;52.808;17.856;2023-04-09T04:11:42;45.92;;;26.90;;
48853;SDS011;34673;52.808;17.856;2023-04-09T04:14:09;46.83;;;27.13;;
48853;SDS011;34673;52.808;17.856;2023-04-09T04:16:39;43.85;;;26.10;;
48853;SDS011;34673;52.808;17.856;2023-04-09T04:19:08;48.08;;;26.30;;
48853;SDS011;34673;52.808;17.856;2023-04-09T04:21:42;48.95;;;27.25;;
48853;SDS011;34673;52.808;17.856;2023-04-09T04:24:09;47.30;;;26.75;;
48853;SDS011;34673;52.808;17.856;2023-04-09T04:26:36;49.78;;;27.60;;
48853;SDS011;34673;52.808;17.856;2023-04-09T04:29:03;46.95;;;25.65;;
48853;SDS011;34673;52.808;17.856;2023-04-09T04:31:42;49.67;;;27.98;;
48853;SDS011;34673;52.808;17.856;2023-04-09T04:34:10;48.53;;;26.75;;
48853;SDS011;34673;52.808;17.856;2023-04-09T04:36:40;46.47;;;26.57;;
48853;SDS011;34673;52.808;17.856;2023-04-09T04:39:07;46.33;;;26.08;;
48853;SDS011;34673;52.808;17.856;2023-04-09T04:41:50;44.40;;;25.35;;
48853;SDS011;34673;52.808;17.856;2023-04-09T04:44:21;42.13;;;25.00;;
48853;SDS011;34673;52.808;17.856;2023-04-09T04:46:53;47.55;;;26.67;;
48853;SDS011;34673;52.808;17.856;2023-04-09T04:49:20;45.28;;;26.27;;
48853;SDS011;34673;52.808;17.856;2023-04-09T04:51:47;48.72;;;27.23;;
48853;SDS011;34673;52.808;17.856;2023-04-09T04:54:15;43.28;;;25.00;;
48853;SDS011;34673;52.808;17.856;2023-04-09T04:56:50;42.47;;;23.83;;
48853;SDS011;34673;52.808;17.856;2023-04-09T04:59:28;45.95;;;26.50;;
48853;SDS011;34673;52.808;17.856;2023-04-09T05:02:00;46.55;;;26.42;;
48853;SDS011;34673;52.808;17.856;2023-04-09T05:04:32;46.17;;;25.83;;
48853;SDS011;34673;52.808;17.856;2023-04-09T05:07:00;48.97;;;26.80;;
48853;SDS011;34673;52.808;17.856;2023-04-09T05:09:28;49.70;;;26.80;;
48853;SDS011;34673;52.808;17.856;2023-04-09T05:11:59;53.50;;;27.13;;
48853;SDS011;34673;52.808;17.856;2023-04-09T05:14:27;46.13;;;25.83;;
48853;SDS011;34673;52.808;17.856;2023-04-09T05:16:54;47.70;;;27.00;;
48853;SDS011;34673;52.808;17.856;2023-04-09T05:19:25;46.80;;;26.02;;
48853;SDS011;34673;52.808;17.856;2023-04-09T05:21:59;45.70;;;25.58;;
48853;SDS011;34673;52.808;17.856;2023-04-09T05:24:27;49.38;;;26.27;;
48853;SDS011;34673;52.808;17.856;2023-04-09T05:26:54;52.33;;;27.35;;
48853;SDS011;34673;52.808;17.856;2023-04-09T05:29:22;49.08;;;25.92;;
48853;SDS011;34673;52.808;17.856;2023-04-09T05:31:49;50.25;;;26.75;;
48853;SDS011;34673;52.808;17.856;2023-04-09T05:34:37;53.10;;;26.05;;
48853;SDS011;34673;52.808;17.856;2023-04-09T05:37:04;47.13;;;24.75;;
48853;SDS011;34673;52.808;17.856;2023-04-09T05:39:32;44.22;;;23.70;;
48853;SDS011;34673;52.808;17.856;2023-04-09T05:42:00;52.10;;;25.52;;
48853;SDS011;34673;52.808;17.856;2023-04-09T05:44:27;47.53;;;25.58;;
48853;SDS011;34673;52.808;17.856;2023-04-09T05:47:08;49.45;;;26.27;;
48853;SDS011;34673;52.808;17.856;2023-04-09T05:49:41;57.70;;;26.92;;
48853;SDS011;34673;52.808;17.856;2023-04-09T05:52:13;60.42;;;27.20;;
48853;SDS011;34673;52.808;17.856;2023-04-09T05:54:41;61.88;;;26.83;;
48853;SDS011;34673;52.808;17.856;2023-04-09T05:57:10;53.20;;;26.83;;
48853;SDS011;34673;52.808;17.856;2023-04-09T06:02:07;60.97;;;28.48;;
48853;SDS011;34673;52.808;17.856;2023-04-09T06:04:34;66.97;;;30.55;;
48853;SDS011;34673;52.808;17.856;2023-04-09T06:07:01;56.88;;;27.23;;
48853;SDS011;34673;52.808;17.856;2023-04-09T06:09:28;56.25;;;26.17;;
48853;SDS011;34673;52.808;17.856;2023-04-09T06:11:55;53.30;;;27.10;;
48853;SDS011;34673;52.808;17.856;2023-04-09T06:14:23;57.90;;;27.33;;
48853;SDS011;34673;52.808;17.856;2023-04-09T06:16:50;47.35;;;24.75;;
48853;SDS011;34673;52.808;17.856;2023-04-09T06:19:17;52.83;;;26.35;;
48853;SDS011;34673;52.808;17.856;2023-04-09T06:21:45;47.38;;;24.23;;
48853;SDS011;34673;52.808;17.856;2023-04-09T06:24:12;47.83;;;25.65;;
48853;SDS011;34673;52.808;17.856;2023-04-09T06:26:39;50.33;;;26.67;;
48853;SDS011;34673;52.808;17.856;2023-04-09T06:29:06;50.10;;;25.80;;
48853;SDS011;34673;52.808;17.856;2023-04-09T06:31:33;40.42;;;22.30;;
48853;SDS011;34673;52.808;17.856;2023-04-09T06:34:00;42.92;;;24.40;;
48853;SDS011;34673;52.808;17.856;2023-04-09T06:36:27;47.45;;;23.73;;
48853;SDS011;34673;52.808;17.856;2023-04-09T06:38:55;42.25;;;22.98;;
48853;SDS011;34673;52.808;17.856;2023-04-09T06:41:23;38.47;;;21.73;;
48853;SDS011;34673;52.808;17.856;2023-04-09T06:43:50;35.80;;;21.25;;
48853;SDS011;34673;52.808;17.856;2023-04-09T06:46:18;40.80;;;22.48;;
48853;SDS011;34673;52.808;17.856;2023-04-09T06:48:46;38.95;;;22.52;;
48853;SDS011;34673;52.808;17.856;2023-04-09T06:51:13;38.03;;;22.20;;
48853;SDS011;34673;52.808;17.856;2023-04-09T06:53:41;37.90;;;22.77;;
48853;SDS011;34673;52.808;17.856;2023-04-09T06:56:08;40.67;;;21.67;;
48853;SDS011;34673;52.808;17.856;2023-04-09T06:58:35;31.88;;;19.52;;
48853;SDS011;34673;52.808;17.856;2023-04-09T07:01:02;37.33;;;22.00;;
48853;SDS011;34673;52.808;17.856;2023-04-09T07:03:29;40.83;;;23.33;;
48853;SDS011;34673;52.808;17.856;2023-04-09T07:05:57;32.50;;;20.10;;
48853;SDS011;34673;52.808;17.856;2023-04-09T07:08:25;36.58;;;20.92;;
48853;SDS011;34673;52.808;17.856;2023-04-09T07:10:52;33.78;;;20.42;;
48853;SDS011;34673;52.808;17.856;2023-04-09T07:13:19;34.92;;;20.55;;
48853;SDS011;34673;52.808;17.856;2023-04-09T07:15:46;33.55;;;20.92;;
48853;SDS011;34673;52.808;17.856;2023-04-09T07:18:13;37.28;;;20.95;;
48853;SDS011;34673;52.808;17.856;2023-04-09T07:20:40;38.95;;;22.50;;
48853;SDS011;34673;52.808;17.856;2023-04-09T07:23:07;36.83;;;22.02;;
48853;SDS011;34673;52.808;17.856;2023-04-09T07:25:34;39.53;;;22.88;;
48853;SDS011;34673;52.808;17.856;2023-04-09T07:28:02;36.75;;;21.80;;
48853;SDS011;34673;52.808;17.856;2023-04-09T07:30:30;39.95;;;22.52;;
48853;SDS011;34673;52.808;17.856;2023-04-09T07:32:57;38.33;;;21.80;;
48853;SDS011;34673;52.808;17.856;2023-04-09T07:35:24;42.20;;;22.65;;
48853;SDS011;34673;52.808;17.856;2023-04-09T07:37:51;47.42;;;25.52;;
48853;SDS011;34673;52.808;17.856;2023-04-09T07:40:18;43.45;;;25.02;;
48853;SDS011;34673;52.808;17.856;2023-04-09T07:42:45;42.28;;;24.00;;
48853;SDS011;34673;52.808;17.856;2023-04-09T07:45:13;38.97;;;23.35;;
48853;SDS011;34673;52.808;17.856;2023-04-09T07:47:40;36.65;;;22.15;;
48853;SDS011;34673;52.808;17.856;2023-04-09T07:50:07;38.08;;;22.33;;
48853;SDS011;34673;52.808;17.856;2023-04-09T07:52:35;39.65;;;22.70;;
48853;SDS011;34673;52.808;17.856;2023-04-09T07:55:03;39.15;;;22.33;;
48853;SDS011;34673;52.808;17.856;2023-04-09T07:57:30;39.30;;;22.65;;
48853;SDS011;34673;52.808;17.856;2023-04-09T07:59:58;36.67;;;22.10;;
48853;SDS011;34673;52.808;17.856;2023-04-09T08:02:25;35.88;;;21.17;;
48853;SDS011;34673;52.808;17.856;2023-04-09T08:04:53;36.53;;;21.40;;
48853;SDS011;34673;52.808;17.856;2023-04-09T08:07:20;32.97;;;19.23;;
48853;SDS011;34673;52.808;17.856;2023-04-09T08:09:47;32.03;;;19.55;;
48853;SDS011;34673;52.808;17.856;2023-04-09T08:12:15;32.97;;;20.02;;
48853;SDS011;34673;52.808;17.856;2023-04-09T08:14:42;32.65;;;19.67;;
48853;SDS011;34673;52.808;17.856;2023-04-09T08:17:09;33.88;;;20.63;;
48853;SDS011;34673;52.808;17.856;2023-04-09T08:19:36;31.67;;;19.50;;
48853;SDS011;34673;52.808;17.856;2023-04-09T08:24:34;33.85;;;19.73;;
48853;SDS011;34673;52.808;17.856;2023-04-09T08:27:01;37.47;;;21.38;;
48853;SDS011;34673;52.808;17.856;2023-04-09T08:29:28;38.15;;;22.75;;
48853;SDS011;34673;52.808;17.856;2023-04-09T08:31:57;33.28;;;20.65;;
48853;SDS011;34673;52.808;17.856;2023-04-09T08:34:24;35.80;;;21.27;;
48853;SDS011;34673;52.808;17.856;2023-04-09T08:36:52;34.70;;;21.25;;
48853;SDS011;34673;52.808;17.856;2023-04-09T08:39:19;37.05;;;21.88;;
48853;SDS011;34673;52.808;17.856;2023-04-09T08:41:46;34.63;;;20.63;;
48853;SDS011;34673;52.808;17.856;2023-04-09T08:44:14;35.60;;;21.25;;
48853;SDS011;34673;52.808;17.856;2023-04-09T08:46:42;34.88;;;20.98;;
48853;SDS011;34673;52.808;17.856;2023-04-09T08:49:10;35.95;;;21.60;;
48853;SDS011;34673;52.808;17.856;2023-04-09T08:51:38;34.25;;;21.42;;
48853;SDS011;34673;52.808;17.856;2023-04-09T08:54:06;32.22;;;20.55;;
48853;SDS011;34673;52.808;17.856;2023-04-09T08:56:33;33.05;;;20.00;;
48853;SDS011;34673;52.808;17.856;2023-04-09T08:59:00;32.40;;;19.90;;
48853;SDS011;34673;52.808;17.856;2023-04-09T09:01:28;31.38;;;19.73;;
48853;SDS011;34673;52.808;17.856;2023-04-09T09:04:01;33.05;;;18.92;;
48853;SDS011;34673;52.808;17.856;2023-04-09T09:06:31;29.42;;;19.23;;
48853;SDS011;34673;52.808;17.856;2023-04-09T09:11:43;28.88;;;18.45;;
48853;SDS011;34673;52.808;17.856;2023-04-09T09:14:16;27.40;;;18.52;;
48853;SDS011;34673;52.808;17.856;2023-04-09T09:21:57;22.90;;;14.68;;
48853;SDS011;34673;52.808;17.856;2023-04-09T09:24:29;21.73;;;15.00;;
48853;SDS011;34673;52.808;17.856;2023-04-09T09:26:58;20.02;;;14.45;;
48853;SDS011;34673;52.808;17.856;2023-04-09T09:29:25;21.48;;;14.10;;
48853;SDS011;34673;52.808;17.856;2023-04-09T09:31:54;21.60;;;14.38;;
48853;SDS011;34673;52.808;17.856;2023-04-09T09:34:23;22.58;;;14.55;;
48853;SDS011;34673;52.808;17.856;2023-04-09T09:36:50;20.77;;;14.18;;
48853;SDS011;34673;52.808;17.856;2023-04-09T09:39:18;22.98;;;15.18;;
48853;SDS011;34673;52.808;17.856;2023-04-09T09:41:45;19.08;;;13.05;;
48853;SDS011;34673;52.808;17.856;2023-04-09T09:44:28;19.88;;;13.23;;
48853;SDS011;34673;52.808;17.856;2023-04-09T09:46:57;19.13;;;13.00;;
48853;SDS011;34673;52.808;17.856;2023-04-09T09:49:24;18.35;;;12.50;;
48853;SDS011;34673;52.808;17.856;2023-04-09T09:51:51;18.38;;;12.75;;
48853;SDS011;34673;52.808;17.856;2023-04-09T09:56:51;17.85;;;12.00;;
48853;SDS011;34673;52.808;17.856;2023-04-09T09:59:22;16.40;;;12.38;;
48853;SDS011;34673;52.808;17.856;2023-04-09T10:01:58;17.25;;;11.88;;
48853;SDS011;34673;52.808;17.856;2023-04-09T10:04:32;18.70;;;12.27;;
48853;SDS011;34673;52.808;17.856;2023-04-09T10:07:04;17.95;;;12.25;;
48853;SDS011;34673;52.808;17.856;2023-04-09T10:09:34;19.50;;;13.40;;
48853;SDS011;34673;52.808;17.856;2023-04-09T10:12:03;19.93;;;13.63;;
48853;SDS011;34673;52.808;17.856;2023-04-09T10:14:33;19.23;;;13.20;;
48853;SDS011;34673;52.808;17.856;2023-04-09T10:17:01;19.48;;;13.30;;
48853;SDS011;34673;52.808;17.856;2023-04-09T10:19:29;19.48;;;12.80;;
48853;SDS011;34673;52.808;17.856;2023-04-09T10:22:05;20.52;;;13.00;;
48853;SDS011;34673;52.808;17.856;2023-04-09T10:24:36;18.83;;;12.85;;
48853;SDS011;34673;52.808;17.856;2023-04-09T10:27:14;17.95;;;12.35;;
48853;SDS011;34673;52.808;17.856;2023-04-09T10:29:43;18.33;;;12.52;;
48853;SDS011;34673;52.808;17.856;2023-04-09T10:32:12;19.05;;;13.00;;
48853;SDS011;34673;52.808;17.856;2023-04-09T10:34:46;19.83;;;13.43;;
48853;SDS011;34673;52.808;17.856;2023-04-09T10:37:24;17.98;;;12.82;;
48853;SDS011;34673;52.808;17.856;2023-04-09T10:39:52;20.00;;;13.77;;
48853;SDS011;34673;52.808;17.856;2023-04-09T10:45:05;19.27;;;13.52;;
48853;SDS011;34673;52.808;17.856;2023-04-09T10:47:34;19.70;;;13.65;;
48853;SDS011;34673;52.808;17.856;2023-04-09T10:50:22;23.60;;;14.65;;
48853;SDS011;34673;52.808;17.856;2023-04-09T10:52:53;21.27;;;14.43;;
48853;SDS011;34673;52.808;17.856;2023-04-09T10:58:08;18.50;;;12.98;;
48853;SDS011;34673;52.808;17.856;2023-04-09T11:00:43;20.98;;;13.98;;
48853;SDS011;34673;52.808;17.856;2023-04-09T11:06:07;20.80;;;14.25;;
48853;SDS011;34673;52.808;17.856;2023-04-09T11:08:36;19.90;;;14.18;;
48853;SDS011;34673;52.808;17.856;2023-04-09T11:11:04;22.60;;;14.93;;
48853;SDS011;34673;52.808;17.856;2023-04-09T11:13:32;23.00;;;15.05;;
48853;SDS011;34673;52.808;17.856;2023-04-09T11:16:00;21.95;;;14.90;;
48853;SDS011;34673;52.808;17.856;2023-04-09T11:18:29;22.65;;;15.23;;
48853;SDS011;34673;52.808;17.856;2023-04-09T11:21:00;23.63;;;14.55;;
48853;SDS011;34673;52.808;17.856;2023-04-09T11:23:31;23.05;;;15.27;;
48853;SDS011;34673;52.808;17.856;2023-04-09T11:26:00;23.05;;;15.88;;
48853;SDS011;34673;52.808;17.856;2023-04-09T11:28:28;25.02;;;15.43;;
48853;SDS011;34673;52.808;17.856;2023-04-09T11:30:55;21.35;;;15.05;;
48853;SDS011;34673;52.808;17.856;2023-04-09T11:33:22;23.17;;;15.25;;
48853;SDS011;34673;52.808;17.856;2023-04-09T11:35:56;23.27;;;15.32;;
48853;SDS011;34673;52.808;17.856;2023-04-09T11:38:23;23.45;;;15.57;;
48853;SDS011;34673;52.808;17.856;2023-04-09T11:40:55;25.13;;;15.68;;
48853;SDS011;34673;52.808;17.856;2023-04-09T11:43:23;24.60;;;16.00;;
48853;SDS011;34673;52.808;17.856;2023-04-09T11:45:50;24.00;;;15.20;;
48853;SDS011;34673;52.808;17.856;2023-04-09T11:48:18;22.20;;;14.88;;
48853;SDS011;34673;52.808;17.856;2023-04-09T11:50:47;21.35;;;14.48;;
48853;SDS011;34673;52.808;17.856;2023-04-09T11:53:18;22.20;;;14.57;;
48853;SDS011;34673;52.808;17.856;2023-04-09T11:55:49;22.30;;;14.70;;
48853;SDS011;34673;52.808;17.856;2023-04-09T11:58:20;19.88;;;14.10;;
48853;SDS011;34673;52.808;17.856;2023-04-09T12:01:08;19.92;;;14.05;;
48853;SDS011;34673;52.808;17.856;2023-04-09T12:03:35;21.85;;;15.10;;
48853;SDS011;34673;52.808;17.856;2023-04-09T12:06:04;24.67;;;16.35;;
48853;SDS011;34673;52.808;17.856;2023-04-09T12:08:35;24.23;;;15.70;;
48853;SDS011;34673;52.808;17.856;2023-04-09T12:11:09;22.80;;;15.25;;
48853;SDS011;34673;52.808;17.856;2023-04-09T12:13:38;24.35;;;16.63;;
48853;SDS011;34673;52.808;17.856;2023-04-09T12:16:10;26.33;;;16.88;;
48853;SDS011;34673;52.808;17.856;2023-04-09T12:18:39;25.48;;;16.50;;
48853;SDS011;34673;52.808;17.856;2023-04-09T12:21:06;24.80;;;16.92;;
48853;SDS011;34673;52.808;17.856;2023-04-09T12:23:33;25.23;;;17.45;;
48853;SDS011;34673;52.808;17.856;2023-04-09T12:26:01;25.15;;;16.75;;
48853;SDS011;34673;52.808;17.856;2023-04-09T12:28:28;22.45;;;15.32;;
48853;SDS011;34673;52.808;17.856;2023-04-09T12:30:55;24.95;;;17.02;;
48853;SDS011;34673;52.808;17.856;2023-04-09T12:33:23;22.88;;;16.42;;
48853;SDS011;34673;52.808;17.856;2023-04-09T12:35:50;23.02;;;17.15;;
48853;SDS011;34673;52.808;17.856;2023-04-09T12:38:18;25.58;;;17.45;;
48853;SDS011;34673;52.808;17.856;2023-04-09T12:40:45;22.88;;;16.58;;
48853;SDS011;34673;52.808;17.856;2023-04-09T12:43:12;24.08;;;17.42;;
48853;SDS011;34673;52.808;17.856;2023-04-09T12:45:39;23.38;;;16.42;;
48853;SDS011;34673;52.808;17.856;2023-04-09T12:48:07;23.48;;;17.33;;
48853;SDS011;34673;52.808;17.856;2023-04-09T12:50:34;22.15;;;16.25;;
48853;SDS011;34673;52.808;17.856;2023-04-09T12:53:01;23.77;;;16.63;;
48853;SDS011;34673;52.808;17.856;2023-04-09T12:55:28;23.73;;;16.10;;
48853;SDS011;34673;52.808;17.856;2023-04-09T12:57:55;21.27;;;16.10;;
48853;SDS011;34673;52.808;17.856;2023-04-09T13:00:22;22.70;;;15.52;;
48853;SDS011;34673;52.808;17.856;2023-04-09T13:02:50;22.40;;;16.02;;
48853;SDS011;34673;52.808;17.856;2023-04-09T13:05:18;23.50;;;16.35;;
48853;SDS011;34673;52.808;17.856;2023-04-09T13:07:46;22.33;;;15.18;;
48853;SDS011;34673;52.808;17.856;2023-04-09T13:10:13;20.70;;;14.63;;
48853;SDS011;34673;52.808;17.856;2023-04-09T13:12:40;21.55;;;15.30;;
48853;SDS011;34673;52.808;17.856;2023-04-09T13:15:07;21.63;;;14.25;;
48853;SDS011;34673;52.808;17.856;2023-04-09T13:17:34;18.90;;;13.32;;
48853;SDS011;34673;52.808;17.856;2023-04-09T13:20:01;18.92;;;13.27;;
48853;SDS011;34673;52.808;17.856;2023-04-09T13:22:29;18.45;;;13.15;;
48853;SDS011;34673;52.808;17.856;2023-04-09T13:24:56;18.48;;;13.18;;
48853;SDS011;34673;52.808;17.856;2023-04-09T13:27:23;18.52;;;12.82;;
48853;SDS011;34673;52.808;17.856;2023-04-09T13:29:51;18.20;;;13.35;;
48853;SDS011;34673;52.808;17.856;2023-04-09T13:32:18;18.52;;;13.07;;
48853;SDS011;34673;52.808;17.856;2023-04-09T13:34:47;20.25;;;14.13;;
48853;SDS011;34673;52.808;17.856;2023-04-09T13:37:15;16.77;;;12.20;;
48853;SDS011;34673;52.808;17.856;2023-04-09T13:39:42;20.50;;;14.43;;
48853;SDS011;34673;52.808;17.856;2023-04-09T13:42:10;19.77;;;13.40;;
48853;SDS011;34673;52.808;17.856;2023-04-09T13:44:39;18.07;;;13.47;;
48853;SDS011;34673;52.808;17.856;2023-04-09T13:47:10;18.52;;;13.60;;
48853;SDS011;34673;52.808;17.856;2023-04-09T13:49:39;17.70;;;12.68;;
48853;SDS011;34673;52.808;17.856;2023-04-09T13:52:07;20.50;;;13.50;;
48853;SDS011;34673;52.808;17.856;2023-04-09T13:54:35;19.30;;;12.65;;
48853;SDS011;34673;52.808;17.856;2023-04-09T13:57:02;18.70;;;12.85;;
48853;SDS011;34673;52.808;17.856;2023-04-09T13:59:29;18.75;;;13.52;;
48853;SDS011;34673;52.808;17.856;2023-04-09T14:01:57;17.70;;;13.23;;
48853;SDS011;34673;52.808;17.856;2023-04-09T14:04:24;18.30;;;13.32;;
48853;SDS011;34673;52.808;17.856;2023-04-09T14:06:51;18.98;;;13.60;;
48853;SDS011;34673;52.808;17.856;2023-04-09T14:09:18;19.98;;;14.13;;
48853;SDS011;34673;52.808;17.856;2023-04-09T14:11:45;19.88;;;14.02;;
48853;SDS011;34673;52.808;17.856;2023-04-09T14:14:13;16.38;;;12.23;;
48853;SDS011;34673;52.808;17.856;2023-04-09T14:16:40;19.50;;;14.20;;
48853;SDS011;34673;52.808;17.856;2023-04-09T14:19:07;18.10;;;13.13;;
48853;SDS011;34673;52.808;17.856;2023-04-09T14:21:35;19.55;;;12.68;;
48853;SDS011;34673;52.808;17.856;2023-04-09T14:24:02;18.75;;;12.73;;
48853;SDS011;34673;52.808;17.856;2023-04-09T14:26:30;19.48;;;13.90;;
48853;SDS011;34673;52.808;17.856;2023-04-09T14:28:57;19.88;;;13.73;;
48853;SDS011;34673;52.808;17.856;2023-04-09T14:31:24;18.88;;;13.85;;
48853;SDS011;34673;52.808;17.856;2023-04-09T14:33:51;16.80;;;12.85;;
48853;SDS011;34673;52.808;17.856;2023-04-09T14:36:18;17.42;;;12.95;;
48853;SDS011;34673;52.808;17.856;2023-04-09T14:38:46;16.77;;;12.63;;
48853;SDS011;34673;52.808;17.856;2023-04-09T14:41:15;18.45;;;13.20;;
48853;SDS011;34673;52.808;17.856;2023-04-09T14:43:42;17.85;;;12.95;;
48853;SDS011;34673;52.808;17.856;2023-04-09T14:46:09;19.13;;;12.70;;
48853;SDS011;34673;52.808;17.856;2023-04-09T14:48:37;17.80;;;13.13;;
48853;SDS011;34673;52.808;17.856;2023-04-09T14:51:07;18.48;;;13.27;;
48853;SDS011;34673;52.808;17.856;2023-04-09T14:53:37;19.63;;;13.63;;
48853;SDS011;34673;52.808;17.856;2023-04-09T14:56:04;19.50;;;13.32;;
48853;SDS011;34673;52.808;17.856;2023-04-09T14:58:32;18.95;;;12.75;;